Terminal Aerodrome Forecast
Issued by NWS

Home | Current Version | Previous Version | Text Only | Print | Product List | Glossary On
Versions: 1 2 3 4 5 6 7 8 9 10 11 12 13 14 15 16
000
FTUS44 KBMX 291139
TAFEET
TAF
KEET 291139Z 2912/3012 00000KT P6SM SCT045
      TEMPO 2912/2915 5SM -SHRA BR BKN025 BKN045
     FM291500 13006KT 6SM -SHRA VCTS BKN035CB
     FM300000 00000KT P6SM -SHRA VCTS OVC045CB=

USA.gov is the U.S. government's official web portal to all federal, state and local government web resources and services.